Time;durP1;ratioP1;P1;durP2;ratioP2;P2;SDS_P1;SDS_P2;PMS_P1;PMS_P2;Temp;Humidity;BMP_temperature;BMP_pressure;BME280_temperature;BME280_humidity;BME280_pressure;Samples;Min_cycle;Max_cycle;Signal;HPM_P1;HPM_P2
2021/10/26 00:01:19;;;;;;;1.20;1.13;;;7.10;98.00;;;;;;5110750;28;20454;-65
2021/10/26 00:03:46;;;;;;;1.20;1.10;;;7.10;98.00;;;;;;5112241;28;21016;-65
2021/10/26 00:06:13;;;;;;;1.20;1.00;;;7.10;98.00;;;;;;5112145;28;20540;-65
2021/10/26 00:08:40;;;;;;;1.30;1.23;;;7.20;98.00;;;;;;5111911;28;20510;-66
2021/10/26 00:11:08;;;;;;;1.67;1.53;;;7.00;98.00;;;;;;5111958;28;20505;-65
2021/10/26 00:13:37;;;;;;;1.93;1.47;;;7.00;98.00;;;;;;5112015;28;20459;-65
2021/10/26 00:16:05;;;;;;;1.50;1.20;;;7.10;98.00;;;;;;5115317;28;20456;-65
2021/10/26 00:18:32;;;;;;;1.70;1.30;;;7.20;98.00;;;;;;5116155;28;20941;-65
2021/10/26 00:20:59;;;;;;;1.87;1.20;;;7.20;98.00;;;;;;5116261;28;20509;-65
2021/10/26 00:23:26;;;;;;;2.07;1.53;;;7.30;98.00;;;;;;5116159;28;20494;-65
2021/10/26 00:25:53;;;;;;;1.20;1.00;;;7.30;98.00;;;;;;5116242;28;20503;-65
2021/10/26 00:28:20;;;;;;;1.60;1.30;;;7.40;98.00;;;;;;5116067;28;20489;-65
2021/10/26 00:30:49;;;;;;;1.20;1.00;;;7.30;98.00;;;;;;5116118;28;20529;-66
2021/10/26 00:33:15;;;;;;;1.30;1.10;;;7.40;98.00;;;;;;5116082;28;20488;-65
2021/10/26 00:35:42;;;;;;;5.30;1.73;;;7.40;98.00;;;;;;5115840;28;21034;-65
2021/10/26 00:38:09;;;;;;;1.73;1.30;;;7.20;98.00;;;;;;5115892;28;20446;-65
2021/10/26 00:40:36;;;;;;;1.40;1.30;;;7.00;98.00;;;;;;5114788;28;20854;-65
2021/10/26 00:43:03;;;;;;;1.47;1.30;;;7.10;98.00;;;;;;5115780;28;20555;-65
2021/10/26 00:45:30;;;;;;;1.20;1.00;;;7.20;98.00;;;;;;5115797;28;20483;-65
2021/10/26 00:47:59;;;;;;;1.20;1.00;;;7.20;98.00;;;;;;5115837;28;20459;-65
2021/10/26 00:50:26;;;;;;;1.30;1.20;;;6.90;98.00;;;;;;5115664;28;20518;-65
2021/10/26 00:52:54;;;;;;;2.30;1.30;;;6.70;98.00;;;;;;5115592;28;20928;-65
2021/10/26 00:55:21;;;;;;;1.40;1.17;;;6.70;98.00;;;;;;5115441;28;20494;-65
2021/10/26 00:57:48;;;;;;;1.60;1.50;;;6.90;98.00;;;;;;5115405;28;20508;-65
2021/10/26 01:00:17;;;;;;;1.67;1.23;;;7.00;98.00;;;;;;5114977;28;20544;-65
2021/10/26 01:02:45;;;;;;;1.30;1.10;;;7.00;98.00;;;;;;5114921;28;20470;-65
2021/10/26 01:05:14;;;;;;;1.20;1.10;;;7.00;98.00;;;;;;5115380;28;20505;-65
2021/10/26 01:07:42;;;;;;;1.30;1.10;;;7.10;98.00;;;;;;5115389;28;20491;-65
2021/10/26 01:10:11;;;;;;;1.20;1.10;;;7.10;98.00;;;;;;5115487;28;20490;-65
2021/10/26 01:12:39;;;;;;;1.83;1.63;;;7.10;98.00;;;;;;5115492;28;20483;-65
2021/10/26 01:15:07;;;;;;;4.17;1.60;;;7.00;98.00;;;;;;5115577;28;20477;-65
2021/10/26 01:17:35;;;;;;;1.60;1.60;;;7.00;98.00;;;;;;5115074;28;21017;-65
2021/10/26 01:20:04;;;;;;;1.20;1.07;;;7.10;98.00;;;;;;5115360;28;20480;-65
2021/10/26 01:22:38;;;;;;;1.33;1.13;;;7.10;98.00;;;;;;5113540;28;20454;-65
2021/10/26 01:25:08;;;;;;;1.40;1.10;;;7.30;98.00;;;;;;5113981;28;20514;-65
2021/10/26 01:27:36;;;;;;;20.13;1.63;;;7.40;98.00;;;;;;5113755;28;20460;-65
2021/10/26 01:30:03;;;;;;;1.50;1.27;;;7.30;98.00;;;;;;5114982;28;20490;-65
2021/10/26 01:32:30;;;;;;;2.17;1.33;;;7.20;98.00;;;;;;5114754;28;20454;-65
2021/10/26 01:34:57;;;;;;;1.23;1.07;;;7.20;98.00;;;;;;5114857;28;20467;-65
2021/10/26 01:37:26;;;;;;;1.20;1.00;;;7.30;98.00;;;;;;5114890;28;20487;-65
2021/10/26 01:39:53;;;;;;;2.17;1.20;;;7.40;98.00;;;;;;5114633;28;20515;-65
2021/10/26 01:42:21;;;;;;;3.03;1.57;;;7.50;98.00;;;;;;5114709;28;20459;-65
2021/10/26 01:44:49;;;;;;;2.03;1.53;;;7.60;98.00;;;;;;5114611;28;20493;-65
2021/10/26 01:47:16;;;;;;;1.47;1.10;;;7.70;98.00;;;;;;5114636;28;20450;-65
2021/10/26 01:49:43;;;;;;;1.20;1.07;;;7.70;98.00;;;;;;5114462;28;20447;-65
2021/10/26 01:52:11;;;;;;;1.60;1.17;;;7.60;98.00;;;;;;5114574;28;20492;-65
2021/10/26 01:54:40;;;;;;;1.20;1.10;;;7.50;98.00;;;;;;5114301;27;20870;-65
2021/10/26 01:57:08;;;;;;;1.90;1.43;;;7.60;98.00;;;;;;5114513;28;20455;-65
2021/10/26 01:59:36;;;;;;;1.77;1.73;;;7.60;98.00;;;;;;5114307;28;20525;-65
2021/10/26 02:02:03;;;;;;;1.30;1.20;;;7.50;98.00;;;;;;5114471;28;20515;-65
2021/10/26 02:04:31;;;;;;;1.60;1.03;;;7.50;98.00;;;;;;5114053;28;20523;-65
2021/10/26 02:06:58;;;;;;;1.20;1.20;;;7.60;98.00;;;;;;5114414;28;20563;-65
2021/10/26 02:09:25;;;;;;;1.20;1.13;;;7.60;98.00;;;;;;5114066;28;20508;-65
2021/10/26 02:11:53;;;;;;;1.20;1.10;;;7.70;98.00;;;;;;5112891;28;20455;-65
2021/10/26 02:14:20;;;;;;;1.20;1.00;;;7.80;98.00;;;;;;5114150;28;20492;-65
2021/10/26 02:16:47;;;;;;;2.33;1.13;;;7.80;98.00;;;;;;5114086;28;20554;-65
2021/10/26 02:19:14;;;;;;;1.40;1.23;;;7.90;98.00;;;;;;5113992;28;20497;-65
2021/10/26 02:21:41;;;;;;;1.20;1.00;;;7.80;98.00;;;;;;5113570;28;20451;-65
2021/10/26 02:24:10;;;;;;;1.50;1.30;;;7.90;98.00;;;;;;5113063;28;20452;-65
2021/10/26 02:26:37;;;;;;;1.60;1.30;;;7.90;98.00;;;;;;5113355;28;20830;-65
2021/10/26 02:29:05;;;;;;;1.20;1.07;;;7.90;98.00;;;;;;5113523;28;20551;-65
2021/10/26 02:31:32;;;;;;;1.50;1.40;;;7.90;98.00;;;;;;5113826;28;20502;-65
2021/10/26 02:33:59;;;;;;;1.40;1.40;;;7.90;98.00;;;;;;5113897;28;21000;-65
2021/10/26 02:36:27;;;;;;;1.20;1.20;;;7.90;98.00;;;;;;5114120;28;20483;-66
2021/10/26 02:38:54;;;;;;;1.27;1.00;;;7.80;98.00;;;;;;5112497;28;20946;-65
2021/10/26 02:41:21;;;;;;;1.20;1.10;;;7.70;98.00;;;;;;5113836;28;20512;-65
2021/10/26 02:43:48;;;;;;;1.47;1.37;;;7.70;98.00;;;;;;5113360;28;20463;-65
2021/10/26 02:46:16;;;;;;;2.40;1.90;;;7.80;98.00;;;;;;5113333;28;20483;-65
2021/10/26 02:48:43;;;;;;;1.20;0.90;;;7.90;98.00;;;;;;5113426;28;20515;-65
2021/10/26 02:51:11;;;;;;;1.20;1.00;;;7.90;98.00;;;;;;5113409;28;20451;-65
2021/10/26 02:53:38;;;;;;;1.30;1.07;;;8.00;98.00;;;;;;5112719;28;21054;-65
2021/10/26 02:56:05;;;;;;;1.70;1.33;;;8.10;98.00;;;;;;5113285;28;20455;-65
2021/10/26 02:58:32;;;;;;;2.33;1.43;;;8.10;98.00;;;;;;5113037;28;20503;-65
2021/10/26 03:01:00;;;;;;;1.47;1.20;;;8.20;98.00;;;;;;5112918;28;21033;-65
2021/10/26 03:03:29;;;;;;;1.20;1.00;;;8.20;98.00;;;;;;5112560;28;20530;-65
2021/10/26 03:05:56;;;;;;;1.20;1.13;;;8.00;98.00;;;;;;5111508;28;20490;-65
2021/10/26 03:08:24;;;;;;;1.40;1.40;;;8.00;98.00;;;;;;5112875;28;20542;-65
2021/10/26 03:10:51;;;;;;;1.67;1.20;;;8.00;98.00;;;;;;5111534;28;20508;-65
2021/10/26 03:13:18;;;;;;;1.20;1.00;;;8.20;98.00;;;;;;5112848;28;20513;-65
2021/10/26 03:15:46;;;;;;;1.40;1.40;;;8.20;98.00;;;;;;5112764;28;20516;-65
2021/10/26 03:18:13;;;;;;;3.53;1.33;;;8.00;98.00;;;;;;5112643;28;20462;-65
2021/10/26 03:20:42;;;;;;;1.47;1.10;;;7.80;98.00;;;;;;5112830;28;20930;-65
2021/10/26 03:23:10;;;;;;;2.27;1.30;;;7.80;98.00;;;;;;5112691;28;20462;-65
2021/10/26 03:25:37;;;;;;;1.43;1.13;;;7.80;98.00;;;;;;5112518;28;20484;-65
2021/10/26 03:28:06;;;;;;;1.30;1.20;;;7.80;98.00;;;;;;5112853;28;20938;-65
2021/10/26 03:30:33;;;;;;;2.70;1.30;;;7.70;98.00;;;;;;5111563;28;20516;-66
2021/10/26 03:33:00;;;;;;;1.30;1.30;;;7.60;98.00;;;;;;5112207;28;20444;-65
2021/10/26 03:35:27;;;;;;;1.47;1.20;;;7.60;98.00;;;;;;5112747;28;20493;-66
2021/10/26 03:37:55;;;;;;;1.40;1.20;;;7.70;98.00;;;;;;5112602;28;20463;-65
2021/10/26 03:40:23;;;;;;;1.30;1.10;;;7.80;98.00;;;;;;5112678;28;20460;-65
2021/10/26 03:42:50;;;;;;;6.40;1.50;;;8.00;98.00;;;;;;5112500;28;20860;-65
2021/10/26 03:45:17;;;;;;;1.50;1.40;;;8.00;98.00;;;;;;5112524;28;20576;-65
2021/10/26 03:47:45;;;;;;;1.20;1.10;;;8.00;98.00;;;;;;5112531;28;20560;-65
2021/10/26 03:50:13;;;;;;;1.77;1.30;;;8.20;98.00;;;;;;5112225;28;20453;-65
2021/10/26 03:52:40;;;;;;;1.20;1.03;;;8.20;98.00;;;;;;5112705;28;20506;-65
2021/10/26 03:55:11;;;;;;;2.17;1.20;;;8.20;98.00;;;;;;5112506;28;20504;-64
2021/10/26 03:57:38;;;;;;;1.60;1.40;;;8.30;98.00;;;;;;5112411;28;20514;-65
2021/10/26 04:00:08;;;;;;;4.23;1.93;;;8.20;98.00;;;;;;5112256;28;20443;-65
2021/10/26 04:02:40;;;;;;;2.30;1.37;;;8.10;98.00;;;;;;5112213;28;20521;-65
2021/10/26 04:05:16;;;;;;;1.40;1.10;;;8.10;98.00;;;;;;5112282;28;20485;-65
2021/10/26 04:07:49;;;;;;;1.80;1.10;;;7.90;98.00;;;;;;5111979;28;20465;-65
2021/10/26 04:10:22;;;;;;;3.37;1.73;;;7.80;98.00;;;;;;5112125;28;20478;-65
2021/10/26 04:12:51;;;;;;;1.20;1.10;;;7.80;98.00;;;;;;5112134;28;20460;-66
2021/10/26 04:15:18;;;;;;;3.30;1.30;;;7.70;98.00;;;;;;5111789;28;20454;-65
2021/10/26 04:17:45;;;;;;;1.50;1.50;;;7.70;98.00;;;;;;5111957;28;20518;-65
2021/10/26 04:20:12;;;;;;;2.37;1.77;;;7.90;98.00;;;;;;5112051;28;20884;-66
2021/10/26 04:22:39;;;;;;;1.20;1.00;;;8.00;98.00;;;;;;5111924;28;20834;-65
2021/10/26 04:25:07;;;;;;;1.30;1.20;;;7.90;98.00;;;;;;5110634;28;20517;-65
2021/10/26 04:27:36;;;;;;;1.57;1.37;;;7.80;98.00;;;;;;5111930;28;20537;-65
2021/10/26 04:30:03;;;;;;;1.67;1.13;;;7.90;98.00;;;;;;5111900;28;20514;-66
2021/10/26 04:32:31;;;;;;;1.20;1.03;;;7.90;98.00;;;;;;5110583;28;20484;-65
2021/10/26 04:35:03;;;;;;;1.97;1.43;;;7.90;98.00;;;;;;5111814;28;20802;-65
2021/10/26 04:37:30;;;;;;;2.17;1.60;;;8.10;98.00;;;;;;5111933;28;20462;-65
2021/10/26 04:39:58;;;;;;;1.23;1.13;;;8.10;98.00;;;;;;5111391;28;20486;-65
2021/10/26 04:42:25;;;;;;;1.20;1.13;;;8.00;98.00;;;;;;5111972;28;20459;-65
2021/10/26 04:44:53;;;;;;;1.20;1.10;;;8.00;98.00;;;;;;5111636;28;20860;-65
2021/10/26 04:47:22;;;;;;;1.30;1.20;;;8.00;98.00;;;;;;5111887;28;20538;-65
2021/10/26 04:49:50;;;;;;;1.37;1.30;;;8.00;98.00;;;;;;5111753;28;20469;-65
2021/10/26 04:52:17;;;;;;;4.77;1.47;;;8.00;98.00;;;;;;5111856;28;20449;-65
2021/10/26 04:54:44;;;;;;;1.93;1.33;;;8.00;98.00;;;;;;5111793;28;20493;-65
2021/10/26 04:57:11;;;;;;;1.97;1.10;;;8.00;98.00;;;;;;5110643;28;20457;-66
2021/10/26 04:59:38;;;;;;;1.90;1.50;;;7.90;98.00;;;;;;5111392;28;20842;-65
2021/10/26 05:02:07;;;;;;;1.20;1.20;;;7.80;98.00;;;;;;5113221;28;20445;-65
2021/10/26 05:04:34;;;;;;;1.20;1.00;;;7.80;98.00;;;;;;5115462;28;20460;-65
2021/10/26 05:07:02;;;;;;;1.30;1.30;;;7.80;98.00;;;;;;5115491;28;20515;-65
2021/10/26 05:09:29;;;;;;;1.30;1.20;;;7.80;98.00;;;;;;5115342;28;20453;-65
2021/10/26 05:11:56;;;;;;;1.20;1.10;;;7.90;98.00;;;;;;5115595;28;20489;-65
2021/10/26 05:14:23;;;;;;;1.30;1.10;;;8.00;98.00;;;;;;5115493;28;20483;-65
2021/10/26 05:16:50;;;;;;;2.37;1.30;;;7.90;98.00;;;;;;5115445;28;20512;-65
2021/10/26 05:19:20;;;;;;;1.50;1.00;;;7.90;98.00;;;;;;5115396;28;20449;-66
2021/10/26 05:21:47;;;;;;;1.20;0.97;;;8.00;98.00;;;;;;5115511;28;20456;-65
2021/10/26 05:24:14;;;;;;;1.40;1.13;;;8.10;98.00;;;;;;5114908;28;20542;-65
2021/10/26 05:26:41;;;;;;;1.40;1.10;;;8.10;98.00;;;;;;5115196;28;20566;-65
2021/10/26 05:29:10;;;;;;;1.30;1.13;;;8.20;98.00;;;;;;5114827;28;20487;-65
2021/10/26 05:31:37;;;;;;;1.20;1.20;;;8.30;98.00;;;;;;5114982;28;20461;-65
2021/10/26 05:34:06;;;;;;;1.40;1.10;;;8.30;98.00;;;;;;5113655;28;20467;-66
2021/10/26 05:36:34;;;;;;;1.40;1.40;;;8.30;98.00;;;;;;5114653;28;20980;-65
2021/10/26 05:39:09;;;;;;;1.20;1.00;;;8.20;98.00;;;;;;5114553;28;20497;-65
2021/10/26 05:41:36;;;;;;;1.50;1.40;;;8.20;98.00;;;;;;5113478;28;20969;-65
2021/10/26 05:44:04;;;;;;;1.83;1.30;;;8.30;98.00;;;;;;5114610;28;20515;-65
2021/10/26 05:46:31;;;;;;;1.67;1.47;;;8.30;98.00;;;;;;5114591;28;20492;-65
2021/10/26 05:48:59;;;;;;;2.17;1.33;;;8.40;98.00;;;;;;5114415;28;20458;-65
2021/10/26 05:51:26;;;;;;;1.70;1.30;;;8.40;98.00;;;;;;5114440;28;20771;-65
2021/10/26 05:53:54;;;;;;;1.20;0.97;;;8.30;98.00;;;;;;5114379;28;21023;-66
2021/10/26 05:56:23;;;;;;;1.30;1.10;;;8.30;98.00;;;;;;5114440;28;20878;-65
2021/10/26 05:58:50;;;;;;;1.77;1.13;;;8.40;98.00;;;;;;5114010;28;20893;-65
2021/10/26 06:01:19;;;;;;;1.93;1.30;;;8.50;98.00;;;;;;5114262;28;20464;-65
2021/10/26 06:03:46;;;;;;;1.20;1.20;;;8.50;98.00;;;;;;5114252;28;20462;-65
2021/10/26 06:06:13;;;;;;;1.30;1.30;;;8.30;98.00;;;;;;5114298;28;20519;-65
2021/10/26 06:08:40;;;;;;;1.40;1.30;;;8.30;98.00;;;;;;5114365;28;20938;-65
2021/10/26 06:11:11;;;;;;;1.20;1.20;;;8.40;98.00;;;;;;5114319;28;20458;-65
2021/10/26 06:13:42;;;;;;;1.60;1.50;;;8.60;98.00;;;;;;5113845;28;20457;-65
2021/10/26 06:16:09;;;;;;;1.20;1.20;;;8.60;98.00;;;;;;5114269;28;20455;-65
2021/10/26 06:18:37;;;;;;;1.83;1.20;;;8.50;98.00;;;;;;5114030;28;20452;-64
2021/10/26 06:21:04;;;;;;;1.20;1.10;;;8.50;98.00;;;;;;5113771;28;20462;-65
2021/10/26 06:23:32;;;;;;;1.60;1.40;;;8.40;98.00;;;;;;5113777;28;20458;-65
2021/10/26 06:26:00;;;;;;;1.57;1.50;;;8.30;98.00;;;;;;5113953;28;20567;-64
2021/10/26 06:28:29;;;;;;;1.77;1.30;;;8.40;98.00;;;;;;5113879;28;20462;-65
2021/10/26 06:30:57;;;;;;;2.90;1.20;;;8.30;98.00;;;;;;5113933;28;20827;-65
2021/10/26 06:33:24;;;;;;;1.40;1.27;;;8.30;98.00;;;;;;5113906;28;20481;-65
2021/10/26 06:35:52;;;;;;;1.47;1.27;;;8.20;98.00;;;;;;5113783;28;20509;-65
2021/10/26 06:38:19;;;;;;;1.77;1.40;;;8.30;98.00;;;;;;5113654;28;20459;-65
2021/10/26 06:40:47;;;;;;;2.90;1.50;;;8.30;98.00;;;;;;5113772;28;20510;-64
2021/10/26 06:43:14;;;;;;;1.30;1.20;;;8.30;98.00;;;;;;5113723;28;20470;-65
2021/10/26 06:45:42;;;;;;;1.20;1.00;;;8.40;98.00;;;;;;5113421;28;20458;-64
2021/10/26 06:48:09;;;;;;;6.30;1.50;;;8.50;98.00;;;;;;5113566;28;20855;-65
2021/10/26 06:50:36;;;;;;;1.47;1.10;;;8.50;98.00;;;;;;5113121;28;21099;-65
2021/10/26 06:53:08;;;;;;;1.57;1.30;;;8.60;98.00;;;;;;5113305;28;20816;-65
2021/10/26 06:55:35;;;;;;;1.70;1.53;;;8.70;98.00;;;;;;5113317;28;20513;-65
2021/10/26 06:58:02;;;;;;;2.80;1.80;;;8.70;98.00;;;;;;5112928;28;20465;-65
2021/10/26 07:00:29;;;;;;;2.67;1.60;;;8.80;98.00;;;;;;5096820;28;20497;-65
2021/10/26 07:03:03;;;;;;;1.77;1.70;;;8.70;98.00;;;;;;5089527;28;20456;-65
2021/10/26 07:05:30;;;;;;;3.50;1.83;;;8.60;98.00;;;;;;5070910;28;20807;-66
2021/10/26 07:07:57;;;;;;;2.03;1.47;;;8.70;98.00;;;;;;5100601;28;20547;-67
2021/10/26 07:10:24;;;;;;;2.20;1.60;;;8.80;98.00;;;;;;5108425;28;20894;-67
2021/10/26 07:12:51;;;;;;;2.90;1.10;;;8.80;98.00;;;;;;5112523;28;20484;-66
2021/10/26 07:15:18;;;;;;;1.80;1.60;;;8.80;98.00;;;;;;5112774;28;20538;-66
2021/10/26 07:17:46;;;;;;;3.47;1.50;;;8.80;98.00;;;;;;5112821;28;20451;-66
2021/10/26 07:20:16;;;;;;;1.20;1.10;;;8.90;98.00;;;;;;5112573;28;20455;-66
2021/10/26 07:22:51;;;;;;;2.57;1.53;;;8.80;98.00;;;;;;5112821;28;20894;-66
2021/10/26 07:25:18;;;;;;;2.17;1.60;;;8.80;98.00;;;;;;5112080;28;20452;-66
2021/10/26 07:27:54;;;;;;;1.67;1.50;;;8.80;98.00;;;;;;5112611;28;20890;-66
2021/10/26 07:30:21;;;;;;;2.50;1.53;;;8.90;98.00;;;;;;5112542;28;20924;-66
2021/10/26 07:32:48;;;;;;;1.20;1.00;;;9.10;98.00;;;;;;5112590;28;20886;-66
2021/10/26 07:35:17;;;;;;;1.33;1.23;;;9.10;98.00;;;;;;5112490;28;20462;-66
2021/10/26 07:37:45;;;;;;;2.57;2.00;;;9.10;98.00;;;;;;5112741;28;20824;-66
2021/10/26 07:40:14;;;;;;;2.40;1.67;;;9.00;98.00;;;;;;5112517;28;20449;-66
2021/10/26 07:42:41;;;;;;;1.60;1.40;;;9.00;98.00;;;;;;5112399;28;20452;-66
2021/10/26 07:45:09;;;;;;;3.20;1.60;;;9.10;98.00;;;;;;5112426;28;20480;-66
2021/10/26 07:47:37;;;;;;;2.30;1.30;;;9.20;98.00;;;;;;5112360;28;20998;-66
2021/10/26 07:50:05;;;;;;;1.70;1.43;;;9.40;98.00;;;;;;5112332;28;20449;-66
2021/10/26 07:52:34;;;;;;;1.60;1.53;;;9.50;98.00;;;;;;5112348;28;20881;-66
2021/10/26 07:55:02;;;;;;;1.47;1.33;;;9.70;98.00;;;;;;5112486;28;20457;-66
2021/10/26 07:57:30;;;;;;;1.40;1.30;;;9.50;98.00;;;;;;5112427;28;20458;-66
2021/10/26 07:59:57;;;;;;;1.30;1.20;;;9.40;98.00;;;;;;5112150;28;20964;-66
2021/10/26 08:02:24;;;;;;;1.87;1.37;;;9.30;98.00;;;;;;5112502;28;20466;-66
2021/10/26 08:04:53;;;;;;;1.73;1.60;;;9.20;98.00;;;;;;5111809;28;20515;-66
2021/10/26 08:07:20;;;;;;;1.97;1.87;;;9.20;98.00;;;;;;5111568;28;20485;-66
2021/10/26 08:09:50;;;;;;;1.40;1.37;;;9.20;98.00;;;;;;5111686;28;20462;-66
2021/10/26 08:12:17;;;;;;;2.27;1.20;;;9.30;98.00;;;;;;5111927;28;20935;-66
2021/10/26 08:14:45;;;;;;;2.90;1.57;;;9.40;98.00;;;;;;5112077;28;20455;-66
2021/10/26 08:17:12;;;;;;;1.67;1.57;;;9.50;98.00;;;;;;5112207;28;20483;-66
2021/10/26 08:19:39;;;;;;;1.40;1.20;;;9.70;98.00;;;;;;5111909;28;20455;-66
2021/10/26 08:22:13;;;;;;;1.90;1.60;;;9.90;98.00;;;;;;5111882;28;20850;-66
2021/10/26 08:24:42;;;;;;;1.20;1.10;;;10.10;98.00;;;;;;5111912;28;20939;-64
2021/10/26 08:27:14;;;;;;;2.70;1.50;;;10.20;98.00;;;;;;5111857;28;20486;-66
2021/10/26 08:29:47;;;;;;;3.33;1.70;;;10.40;98.00;;;;;;5111859;28;20497;-64
2021/10/26 08:32:30;;;;;;;2.27;1.47;;;10.50;98.00;;;;;;5111760;28;20454;-65
2021/10/26 08:37:47;;;;;;;2.17;1.53;;;10.70;98.00;;;;;;5110223;27;20455;-66
2021/10/26 08:40:14;;;;;;;2.70;1.63;;;10.90;98.00;;;;;;5115672;28;20925;-64
2021/10/26 08:42:45;;;;;;;1.97;1.67;;;11.00;98.00;;;;;;5116027;28;20454;-67
2021/10/26 08:45:12;;;;;;;1.80;1.67;;;11.00;98.00;;;;;;5115668;28;20857;-67
2021/10/26 08:47:42;;;;;;;2.10;1.70;;;11.10;98.00;;;;;;5115694;28;20538;-66
2021/10/26 08:50:10;;;;;;;1.80;1.57;;;11.10;98.00;;;;;;5115716;28;20455;-66
2021/10/26 08:52:37;;;;;;;1.50;1.40;;;11.10;98.00;;;;;;5115700;28;21412;-66
2021/10/26 08:55:07;;;;;;;2.33;1.67;;;11.30;98.00;;;;;;5115704;28;20456;-66
2021/10/26 08:57:34;;;;;;;1.60;1.40;;;11.20;98.00;;;;;;5115575;28;20487;-65
2021/10/26 09:00:07;;;;;;;1.47;1.20;;;11.40;98.00;;;;;;5115539;28;20589;-66
2021/10/26 09:02:41;;;;;;;1.53;1.30;;;11.70;98.00;;;;;;5115531;28;20464;-66
2021/10/26 09:05:10;;;;;;;2.03;1.57;;;12.60;98.00;;;;;;5115522;28;20444;-65
2021/10/26 09:07:38;;;;;;;1.70;1.43;;;13.20;98.00;;;;;;5115340;28;20548;-66
2021/10/26 09:10:14;;;;;;;2.33;1.63;;;13.60;98.00;;;;;;5115319;28;20454;-67
2021/10/26 09:18:26;;;;;;;1.83;1.40;;;15.40;98.00;;;;;;5115448;28;20437;-66
2021/10/26 09:20:54;;;;;;;2.77;2.13;;;15.80;98.00;;;;;;5115337;28;20501;-66
2021/10/26 09:23:26;;;;;;;3.10;2.27;;;16.20;98.00;;;;;;5115218;28;20458;-67
2021/10/26 09:26:00;;;;;;;2.00;1.77;;;16.60;98.00;;;;;;5115379;28;20456;-66
2021/10/26 09:28:28;;;;;;;3.50;1.97;;;17.00;98.00;;;;;;5115065;28;20539;-66
2021/10/26 09:31:22;;;;;;;2.50;1.80;;;17.30;98.00;;;;;;5115134;28;20473;-66
2021/10/26 09:33:59;;;;;;;3.23;2.40;;;17.30;98.00;;;;;;5114929;28;20519;-68
2021/10/26 09:36:31;;;;;;;3.10;2.50;;;17.20;98.00;;;;;;5114890;28;20459;-68
2021/10/26 09:39:14;;;;;;;4.23;2.50;;;17.10;98.00;;;;;;5114844;28;20487;-67
2021/10/26 09:42:06;;;;;;;4.27;2.67;;;17.30;98.00;;;;;;5113027;28;20966;-67
2021/10/26 09:44:39;;;;;;;2.57;2.17;;;17.50;98.00;;;;;;5113930;28;20459;-66
2021/10/26 09:47:11;;;;;;;2.83;2.10;;;17.30;98.00;;;;;;5114137;28;20561;-66
2021/10/26 09:49:39;;;;;;;4.03;2.10;;;16.80;98.00;;;;;;5114361;28;20461;-66
2021/10/26 09:52:26;;;;;;;2.43;1.50;;;16.30;98.00;;;;;;5114501;28;20479;-66
2021/10/26 09:55:14;;;;;;;2.07;1.80;;;16.20;98.00;;;;;;5114475;28;20490;-67
2021/10/26 09:57:45;;;;;;;2.00;1.67;;;16.10;98.00;;;;;;5114397;28;20526;-67
2021/10/26 10:00:14;;;;;;;1.90;1.80;;;16.10;98.00;;;;;;5113054;28;20471;-66
2021/10/26 10:02:43;;;;;;;1.83;1.73;;;16.00;98.00;;;;;;5114264;28;20542;-66
2021/10/26 10:05:24;;;;;;;1.80;1.70;;;15.60;98.00;;;;;;5114346;28;20466;-66
2021/10/26 10:07:51;;;;;;;1.80;1.70;;;15.70;98.00;;;;;;5114090;28;20816;-66
2021/10/26 10:10:18;;;;;;;2.80;2.00;;;15.60;98.00;;;;;;5114339;28;20447;-66
2021/10/26 10:12:45;;;;;;;2.07;1.77;;;15.60;98.00;;;;;;5114207;28;20542;-66
2021/10/26 10:15:15;;;;;;;2.87;1.67;;;15.60;98.00;;;;;;5114050;28;20553;-66
2021/10/26 10:17:46;;;;;;;2.43;1.80;;;15.60;98.00;;;;;;5114109;28;20454;-65
2021/10/26 10:20:18;;;;;;;2.00;1.50;;;15.70;98.00;;;;;;5114027;28;20924;-66
2021/10/26 10:22:48;;;;;;;1.40;1.10;;;15.60;98.00;;;;;;5112836;28;20803;-66
2021/10/26 10:25:16;;;;;;;2.17;1.53;;;15.60;98.00;;;;;;5114173;28;20538;-65
2021/10/26 10:27:47;;;;;;;1.40;1.30;;;15.60;98.00;;;;;;5112574;28;20517;-66
2021/10/26 10:30:15;;;;;;;2.10;1.60;;;15.60;98.00;;;;;;5113866;28;20462;-66
2021/10/26 10:32:42;;;;;;;1.60;1.30;;;15.80;98.00;;;;;;5113978;28;21018;-66
2021/10/26 10:35:18;;;;;;;2.43;1.47;;;15.90;98.00;;;;;;5113843;28;20509;-66
2021/10/26 10:37:49;;;;;;;1.30;1.20;;;16.00;98.00;;;;;;5112321;28;20450;-66
2021/10/26 10:40:24;;;;;;;2.40;1.60;;;15.90;98.00;;;;;;5113856;28;20485;-66
2021/10/26 10:42:52;;;;;;;1.93;1.33;;;15.90;98.00;;;;;;5113618;28;20503;-66
2021/10/26 10:45:23;;;;;;;2.03;1.50;;;16.00;98.00;;;;;;5113720;28;20556;-66
2021/10/26 10:47:51;;;;;;;1.30;1.20;;;16.20;98.00;;;;;;5112646;28;20585;-66
2021/10/26 10:50:32;;;;;;;1.70;1.47;;;16.50;98.00;;;;;;5113299;28;20458;-66
2021/10/26 10:53:33;;;;;;;1.20;1.10;;;16.80;98.00;;;;;;5113594;28;20462;-66
2021/10/26 10:56:13;;;;;;;1.67;1.40;;;16.70;98.00;;;;;;5079514;28;20458;-66
2021/10/26 10:58:41;;;;;;;1.70;1.37;;;16.50;98.00;;;;;;5112684;28;20469;-67
2021/10/26 11:01:32;;;;;;;1.20;1.10;;;16.60;98.00;;;;;;5112802;28;20458;-67
2021/10/26 11:04:01;;;;;;;1.77;1.10;;;17.00;98.00;;;;;;5113009;27;20478;-67
2021/10/26 11:06:57;;;;;;;1.53;1.30;;;17.10;98.00;;;;;;5112968;28;20447;-67
2021/10/26 11:09:44;;;;;;;1.50;1.10;;;17.00;98.00;;;;;;5109654;28;20495;-66
2021/10/26 11:12:14;;;;;;;1.33;1.27;;;16.70;98.00;;;;;;5087794;28;20463;-65
2021/10/26 11:14:47;;;;;;;2.03;1.30;;;16.40;98.00;;;;;;5095244;28;20992;-64
2021/10/26 11:18:01;;;;;;;1.50;1.30;;;16.00;98.00;;;;;;5103901;28;20520;-64
2021/10/26 11:20:48;;;;;;;1.60;1.30;;;15.90;98.00;;;;;;5092139;28;20512;-65
2021/10/26 11:23:36;;;;;;;1.77;1.50;;;15.80;98.00;;;;;;5099908;28;20486;-65
2021/10/26 11:26:05;;;;;;;1.30;1.30;;;15.60;98.00;;;;;;5105871;28;20468;-65
2021/10/26 11:28:56;;;;;;;1.97;1.10;;;15.50;98.00;;;;;;5107786;28;21141;-65
2021/10/26 11:31:26;;;;;;;2.37;1.50;;;15.50;98.00;;;;;;5091196;28;20563;-65
2021/10/26 11:34:03;;;;;;;1.93;1.27;;;15.50;98.00;;;;;;5107864;28;20453;-65
2021/10/26 11:36:32;;;;;;;2.33;1.27;;;15.50;98.00;;;;;;5089517;28;20460;-65
2021/10/26 11:39:04;;;;;;;1.60;1.20;;;15.50;98.00;;;;;;5100927;28;20458;-65
2021/10/26 11:41:35;;;;;;;1.50;1.20;;;15.50;98.00;;;;;;5107116;28;20458;-66
2021/10/26 11:44:05;;;;;;;1.60;1.50;;;15.60;98.00;;;;;;5091097;28;20527;-65
2021/10/26 11:46:34;;;;;;;1.30;1.30;;;15.70;98.00;;;;;;5101374;28;20459;-66
2021/10/26 11:49:05;;;;;;;1.67;1.17;;;15.80;98.00;;;;;;5097841;28;20574;-66
2021/10/26 11:51:39;;;;;;;1.70;1.30;;;15.80;98.00;;;;;;5092101;28;20462;-65
2021/10/26 11:54:12;;;;;;;1.40;1.40;;;15.80;98.00;;;;;;5108180;28;20599;-66
2021/10/26 11:56:41;;;;;;;1.40;1.37;;;15.70;98.00;;;;;;5099758;28;20454;-65
2021/10/26 11:59:10;;;;;;;1.27;1.07;;;15.90;98.00;;;;;;5104550;28;20476;-66
2021/10/26 12:01:48;;;;;;;1.73;1.47;;;16.10;98.00;;;;;;5094617;28;20482;-66
2021/10/26 12:04:25;;;;;;;1.90;1.30;;;16.20;98.00;;;;;;5107006;28;20489;-66
2021/10/26 12:06:56;;;;;;;2.90;1.40;;;16.20;98.00;;;;;;5107861;28;20813;-66
2021/10/26 12:09:25;;;;;;;2.10;1.40;;;16.20;98.00;;;;;;5101090;28;20577;-66
2021/10/26 12:11:55;;;;;;;1.67;1.33;;;16.20;98.00;;;;;;5097021;28;20450;-66
2021/10/26 12:14:28;;;;;;;1.30;1.27;;;16.20;98.00;;;;;;5107604;28;20502;-66
2021/10/26 12:17:18;;;;;;;1.70;1.40;;;16.20;98.00;;;;;;5100211;28;20504;-66
2021/10/26 12:19:57;;;;;;;2.83;1.70;;;16.20;98.00;;;;;;5083469;28;20451;-66
2021/10/26 12:22:28;;;;;;;1.90;1.50;;;16.00;98.00;;;;;;5107352;28;20517;-66
2021/10/26 12:25:12;;;;;;;1.30;1.30;;;16.00;98.00;;;;;;5111537;28;20922;-65
2021/10/26 12:27:59;;;;;;;1.60;1.50;;;15.90;98.00;;;;;;5111541;28;20484;-66
2021/10/26 12:30:27;;;;;;;1.20;1.10;;;16.10;98.00;;;;;;5111741;28;20455;-66
2021/10/26 12:32:57;;;;;;;1.30;1.30;;;16.60;98.00;;;;;;5111710;28;20493;-68
2021/10/26 12:35:30;;;;;;;1.47;1.40;;;17.00;98.00;;;;;;5111877;28;20458;-69
2021/10/26 12:38:24;;;;;;;1.20;1.20;;;17.40;98.00;;;;;;5111959;28;20984;-68
2021/10/26 12:41:05;;;;;;;1.80;1.47;;;17.30;98.00;;;;;;5111818;28;20936;-69
2021/10/26 12:43:33;;;;;;;1.70;1.63;;;17.20;98.00;;;;;;5111038;28;20852;-69
2021/10/26 12:46:16;;;;;;;2.03;1.57;;;17.10;98.00;;;;;;5111964;28;20447;-69
2021/10/26 12:48:43;;;;;;;3.00;1.73;;;16.90;98.00;;;;;;5094398;28;20507;-69
2021/10/26 12:51:10;;;;;;;2.23;1.40;;;16.60;98.00;;;;;;5111743;28;20520;-66
2021/10/26 12:53:39;;;;;;;1.57;1.33;;;16.40;98.00;;;;;;5110530;28;20497;-66
2021/10/26 12:56:19;;;;;;;1.67;1.63;;;16.10;98.00;;;;;;5111985;28;20482;-66
2021/10/26 12:58:48;;;;;;;1.23;1.10;;;16.00;98.00;;;;;;5111488;28;20879;-66
2021/10/26 13:01:37;;;;;;;1.30;1.30;;;15.90;98.00;;;;;;5111721;28;20458;-66
2021/10/26 13:04:11;;;;;;;2.57;1.80;;;15.90;98.00;;;;;;5111658;28;20450;-66
2021/10/26 13:06:50;;;;;;;1.23;1.13;;;15.90;98.00;;;;;;5111741;28;20494;-66
2021/10/26 13:09:30;;;;;;;3.93;1.80;;;16.00;98.00;;;;;;5111637;28;20482;-66
2021/10/26 13:12:11;;;;;;;1.50;1.40;;;16.00;98.00;;;;;;5111748;28;20451;-66
2021/10/26 13:14:44;;;;;;;1.80;1.57;;;15.90;98.00;;;;;;5111367;28;20458;-66
2021/10/26 13:17:40;;;;;;;1.60;1.57;;;15.80;98.00;;;;;;5111466;28;20456;-66